< < Back
Terminal Aerodrome Forecast


Current Version              Previous Versions:   1  2  3  4  5  6  7  8  9  

Terminal Aerodrome Forecast

813
FTUS42 KGSP 272122 AAA
TAFCLT
TAF AMD
KCLT 272122Z 2721/2818 31011G20KT P6SM BKN060
     FM272300 33007KT P6SM FEW060
     FM281100 35005KT P6SM FEW250=

Latest METAR

124
SAUS70 KWBC 280000 RRC
MTRCLT
METAR KCLT 272352Z 31010KT 10SM BKN055 06/M05 A3024 RMK AO2 SLP241
T00561050 10111 20056 53031


USA.gov is the U.S. government's official web portal to all federal, state and local government web resources and services.